Terminal Aerodrome Forecast
Issued by NWS Mt. Holly, NJ

Current Version | Previous Version | Text Only | Print | Product List | Glossary On
Versions: 1 2 3 4 5 6 7 8 9 10 11 12 13 14 15 16 17
428
FTUS41 KPHI 241121
TAFRDG
TAF
KRDG 241121Z 2412/2512 VRB03KT P6SM SCT015
     FM241400 19004KT P6SM SCT250
     FM241600 19008G16KT P6SM SCT045
     FM242300 17006KT P6SM SCT045
     FM250800 15004KT 3SM BR OVC008=

USA.gov is the U.S. government's official web portal to all federal, state and local government web resources and services.